Time;durP1;ratioP1;P1;durP2;ratioP2;P2;SDS_P1;SDS_P2;PMS_P1;PMS_P2;Temp;Humidity;BMP_temperature;BMP_pressure;BME280_temperature;BME280_humidity;BME280_pressure;Samples;Min_cycle;Max_cycle;Signal;HPM_P1;HPM_P2
2023/04/03 00:00:10;;;;;;;10.90;8.60;;;;;;;8.04;81.17;98616.33;107245;1257;74072;-37
2023/04/03 00:02:40;;;;;;;12.00;9.50;;;;;;;8.14;80.93;98615.80;107299;1257;66333;-37
2023/04/03 00:05:10;;;;;;;10.80;9.60;;;;;;;8.17;80.79;98614.40;107340;1258;73910;-37
2023/04/03 00:07:39;;;;;;;13.40;10.00;;;;;;;8.18;80.68;98614.42;107226;1257;61377;-37
2023/04/03 00:10:12;;;;;;;13.60;9.90;;;;;;;8.21;80.60;98615.09;107252;1257;60201;-37
2023/04/03 00:12:41;;;;;;;12.30;9.00;;;;;;;8.22;80.59;98613.47;107227;1257;74183;-36
2023/04/03 00:15:10;;;;;;;11.60;9.00;;;;;;;8.29;80.44;98612.45;107278;1257;69318;-37
2023/04/03 00:17:39;;;;;;;12.60;10.40;;;;;;;8.35;80.15;98611.80;107180;1260;73955;-37
2023/04/03 00:20:09;;;;;;;14.30;10.70;;;;;;;8.36;80.04;98614.73;107202;1257;61647;-37
2023/04/03 00:22:38;;;;;;;14.20;10.20;;;;;;;8.38;80.06;98613.30;107091;1256;61363;-37
2023/04/03 00:25:10;;;;;;;11.50;9.50;;;;;;;8.36;79.74;98615.73;107077;1260;74245;-37
2023/04/03 00:27:39;;;;;;;10.60;8.50;;;;;;;8.33;79.39;98613.61;107135;1256;69621;-37
2023/04/03 00:30:10;;;;;;;11.10;9.10;;;;;;;8.32;79.56;98615.30;107171;1257;72722;-37
2023/04/03 00:32:39;;;;;;;12.90;9.30;;;;;;;8.35;79.72;98612.86;107023;1257;60369;-37
2023/04/03 00:35:08;;;;;;;12.60;9.70;;;;;;;8.33;79.29;98614.61;107130;1257;60256;-36
2023/04/03 00:37:37;;;;;;;13.60;10.20;;;;;;;8.27;79.35;98612.80;107343;1256;74236;-37
2023/04/03 00:40:06;;;;;;;11.30;8.80;;;;;;;8.25;79.38;98610.74;107118;1257;69128;-37
2023/04/03 00:42:37;;;;;;;11.80;9.00;;;;;;;8.28;79.27;98612.58;107177;1257;73856;-37
2023/04/03 00:45:05;;;;;;;13.10;9.50;;;;;;;8.26;79.19;98608.46;107251;1257;60711;-37
2023/04/03 00:47:36;;;;;;;12.20;9.70;;;;;;;8.22;79.28;98609.40;107257;1257;61423;-37
2023/04/03 00:50:05;;;;;;;15.30;11.00;;;;;;;8.20;79.37;98610.74;107320;1257;73387;-38
2023/04/03 00:52:34;;;;;;;9.60;7.40;;;;;;;8.17;79.54;98609.23;107285;1256;69172;-37
2023/04/03 00:55:05;;;;;;;11.50;9.60;;;;;;;8.21;79.59;98608.91;107234;1257;73896;-37
2023/04/03 00:57:34;;;;;;;12.20;10.20;;;;;;;8.27;79.54;98610.55;107235;1257;61551;-36
2023/04/03 01:00:12;;;;;;;14.00;10.50;;;;;;;8.29;79.56;98609.75;107196;1257;61199;-36
2023/04/03 01:02:41;;;;;;;12.80;10.70;;;;;;;8.28;79.46;98613.42;107135;1256;72158;-36
2023/04/03 01:05:11;;;;;;;13.00;9.70;;;;;;;8.23;79.43;98612.25;107251;1257;69148;-37
2023/04/03 01:07:40;;;;;;;12.10;9.40;;;;;;;8.19;79.35;98612.97;107251;1257;73678;-36
2023/04/03 01:10:10;;;;;;;14.00;9.70;;;;;;;8.20;79.39;98612.69;107219;1257;61764;-37
2023/04/03 01:12:41;;;;;;;12.90;10.20;;;;;;;8.22;79.53;98610.39;107201;1257;61332;-37
2023/04/03 01:15:26;;;;;;;11.70;9.70;;;;;;;8.23;79.95;98612.13;107272;1257;74792;-37
2023/04/03 01:17:58;;;;;;;12.60;9.90;;;;;;;8.24;79.64;98610.58;107203;1257;69220;-37
2023/04/03 01:20:36;;;;;;;12.00;9.60;;;;;;;8.20;79.52;98613.44;107208;1257;72194;-37
2023/04/03 01:23:10;;;;;;;11.40;8.30;;;;;;;8.19;79.52;98611.48;107275;1257;62933;-37
2023/04/03 01:25:40;;;;;;;10.00;8.70;;;;;;;8.24;79.42;98613.89;107170;1256;60399;-37
2023/04/03 01:28:12;;;;;;;7.30;6.20;;;;;;;8.24;79.26;98612.82;107147;1257;74962;-37
2023/04/03 01:31:05;;;;;;;10.80;9.20;;;;;;;8.20;79.09;98614.99;107160;1260;68801;-37
2023/04/03 01:33:35;;;;;;;9.30;8.00;;;;;;;8.14;79.23;98617.44;107273;1257;73429;-37
2023/04/03 01:36:05;;;;;;;9.00;7.50;;;;;;;8.07;79.39;98605.52;107283;1257;61665;-37
2023/04/03 01:38:35;;;;;;;9.90;7.30;;;;;;;8.18;79.45;98613.03;107181;1257;61560;-37
2023/04/03 01:41:04;;;;;;;11.00;8.50;;;;;;;8.20;79.28;98614.68;107289;1260;73970;-37
2023/04/03 01:43:33;;;;;;;9.80;7.90;;;;;;;8.16;79.29;98614.85;106515;1257;1003149;-37
2023/04/03 01:46:02;;;;;;;11.30;7.70;;;;;;;8.14;79.46;98617.75;107227;1256;73920;-37
2023/04/03 01:48:32;;;;;;;8.80;7.10;;;;;;;8.11;79.43;98616.86;107238;1257;63195;-37
2023/04/03 01:51:00;;;;;;;9.00;7.20;;;;;;;8.12;79.52;98619.64;107248;1257;61528;-37
2023/04/03 01:53:29;;;;;;;8.50;7.00;;;;;;;8.13;79.50;98620.89;107244;1256;74696;-37
2023/04/03 01:56:00;;;;;;;10.10;7.30;;;;;;;8.14;79.67;98621.38;107250;1257;69131;-37
2023/04/03 01:58:30;;;;;;;8.00;6.70;;;;;;;8.13;79.63;98616.57;107223;1257;73795;-37
2023/04/03 02:00:58;;;;;;;8.30;6.70;;;;;;;8.11;79.61;98616.32;107255;1257;63203;-37
2023/04/03 02:03:27;;;;;;;7.60;5.90;;;;;;;8.15;79.48;98615.08;107294;1256;61578;-36
2023/04/03 02:05:56;;;;;;;7.00;5.80;;;;;;;8.19;79.18;98613.20;107251;1256;75075;-37
2023/04/03 02:08:25;;;;;;;8.80;7.10;;;;;;;8.18;79.12;98615.19;107241;1256;69148;-37
2023/04/03 02:10:54;;;;;;;8.20;6.10;;;;;;;8.14;79.06;98616.66;107255;1257;73553;-37
2023/04/03 02:13:22;;;;;;;8.20;6.20;;;;;;;8.09;79.13;98618.20;107268;1261;61475;-36
2023/04/03 02:15:51;;;;;;;7.30;5.50;;;;;;;8.02;79.19;98620.09;107178;1257;61643;-36
2023/04/03 02:18:20;;;;;;;9.20;6.40;;;;;;;7.97;79.29;98621.39;107114;1256;75028;-37
2023/04/03 02:20:50;;;;;;;;;;;;;;;7.98;79.64;98621.02;107210;1257;68799;-37
2023/04/03 02:23:19;;;;;;;8.50;6.50;;;;;;;7.91;79.91;98622.90;107240;1257;73880;-37
2023/04/03 02:25:48;;;;;;;7.10;5.90;;;;;;;7.81;80.32;98625.19;107231;1257;61221;-36
2023/04/03 02:28:17;;;;;;;6.40;4.70;;;;;;;7.77;80.61;98624.05;107236;1257;61524;-38
2023/04/03 02:30:46;;;;;;;6.30;5.20;;;;;;;7.85;80.87;98625.81;107222;1256;73774;-37
2023/04/03 02:33:15;;;;;;;6.90;5.60;;;;;;;7.97;80.76;98627.17;107054;1257;69182;-37
2023/04/03 02:35:52;;;;;;;7.70;5.80;;;;;;;8.05;80.65;98627.09;107237;1257;72486;-37
2023/04/03 02:38:22;;;;;;;7.30;6.00;;;;;;;8.07;80.41;98631.13;107221;1257;60425;-37
2023/04/03 02:40:52;;;;;;;9.40;6.20;;;;;;;8.08;80.28;98630.22;107205;1257;61448;-37
2023/04/03 02:43:21;;;;;;;7.60;5.50;;;;;;;8.04;79.90;98628.77;107183;1257;75079;-37
2023/04/03 02:45:49;;;;;;;10.30;6.20;;;;;;;8.07;79.86;98627.73;107170;1256;67793;-37
2023/04/03 02:48:19;;;;;;;7.50;5.70;;;;;;;8.06;79.90;98626.55;107127;1257;73698;-37
2023/04/03 02:50:48;;;;;;;6.90;5.80;;;;;;;7.99;80.07;98629.06;107151;1257;61502;-37
2023/04/03 02:53:19;;;;;;;7.90;6.00;;;;;;;7.96;80.35;98631.08;107149;1257;61220;-37
2023/04/03 02:55:51;;;;;;;7.80;5.80;;;;;;;7.94;80.37;98626.98;107231;1260;75357;-37
2023/04/03 02:58:20;;;;;;;6.90;5.30;;;;;;;7.97;80.26;98632.96;107269;1257;68771;-37
2023/04/03 03:00:49;;;;;;;7.40;5.60;;;;;;;7.99;80.27;98634.52;107168;1256;73620;-37
2023/04/03 03:03:18;;;;;;;8.00;5.70;;;;;;;7.99;80.40;98637.16;107237;1256;61387;-37
2023/04/03 03:05:47;;;;;;;7.10;5.90;;;;;;;7.98;80.44;98629.96;107256;1257;61535;-37
2023/04/03 03:08:19;;;;;;;7.10;5.60;;;;;;;7.99;80.57;98632.83;107286;1257;74837;-37
2023/04/03 03:10:51;;;;;;;6.70;5.60;;;;;;;8.02;80.33;98633.73;107200;1257;69007;-37
2023/04/03 03:13:19;;;;;;;7.20;5.60;;;;;;;8.06;80.22;98633.66;107166;1257;73914;-37
2023/04/03 03:15:49;;;;;;;8.20;5.80;;;;;;;8.07;80.25;98633.05;107168;1257;61483;-37
2023/04/03 03:18:18;;;;;;;8.40;6.30;;;;;;;8.05;80.24;98629.86;107246;1257;61213;-37
2023/04/03 03:20:46;;;;;;;6.30;5.40;;;;;;;8.01;80.28;98630.27;107184;1257;75089;-37
2023/04/03 03:23:16;;;;;;;7.20;5.90;;;;;;;8.03;80.21;98632.13;107208;1260;69114;-37
2023/04/03 03:25:44;;;;;;;7.70;5.60;;;;;;;8.06;80.28;98633.66;107287;1257;73983;-37
2023/04/03 03:28:16;;;;;;;7.80;5.90;;;;;;;8.06;80.22;98637.20;107249;1257;61316;-38
2023/04/03 03:30:44;;;;;;;8.20;6.30;;;;;;;8.03;80.32;98635.92;107265;1256;61591;-38
2023/04/03 03:33:12;;;;;;;8.40;5.30;;;;;;;8.03;80.40;98637.08;107258;1257;75016;-38
2023/04/03 03:35:41;;;;;;;7.80;5.50;;;;;;;8.07;80.23;98639.30;107327;1257;69161;-38
2023/04/03 03:38:15;;;;;;;7.00;5.30;;;;;;;8.12;80.14;98644.25;107040;1257;73872;-38
2023/04/03 03:40:44;;;;;;;8.30;6.10;;;;;;;8.12;80.20;98647.03;107247;1257;60336;-37
2023/04/03 03:43:13;;;;;;;7.90;5.90;;;;;;;8.13;80.24;98644.49;107259;1256;60942;-38
2023/04/03 03:45:42;;;;;;;10.10;6.00;;;;;;;8.14;80.27;98644.59;107280;1257;74958;-38
2023/04/03 03:48:11;;;;;;;6.30;5.30;;;;;;;8.18;80.21;98645.66;107279;1256;67683;-37
2023/04/03 03:50:39;;;;;;;7.00;5.90;;;;;;;8.26;79.88;98644.55;107258;1257;73833;-38
2023/04/03 03:53:10;;;;;;;8.90;6.00;;;;;;;8.29;79.99;98648.80;107185;1257;61515;-37
2023/04/03 03:55:39;;;;;;;8.40;6.80;;;;;;;8.31;79.93;98650.07;107135;1260;61150;-37
2023/04/03 03:58:08;;;;;;;8.90;6.40;;;;;;;8.30;79.61;98650.44;107134;1257;73840;-37
2023/04/03 04:00:37;;;;;;;8.90;6.00;;;;;;;8.25;79.52;98651.56;107297;1256;68760;-37
2023/04/03 04:03:06;;;;;;;7.10;5.60;;;;;;;8.30;79.55;98650.73;107221;1257;72671;-37
2023/04/03 04:05:35;;;;;;;8.90;6.40;;;;;;;8.30;79.24;98652.92;107269;1257;60805;-37
2023/04/03 04:08:04;;;;;;;9.50;6.40;;;;;;;8.26;79.54;98658.69;107293;1261;60451;-37
2023/04/03 04:10:34;;;;;;;8.70;6.30;;;;;;;8.25;79.61;98661.35;107206;1257;75086;-37
2023/04/03 04:13:03;;;;;;;9.10;6.50;;;;;;;8.23;79.66;98662.10;107235;1257;68012;-36
2023/04/03 04:15:32;;;;;;;7.90;6.20;;;;;;;8.26;79.51;98665.16;107211;1257;72398;-36
2023/04/03 04:18:03;;;;;;;11.10;6.60;;;;;;;8.33;79.50;98665.16;107245;1257;59677;-37
2023/04/03 04:20:32;;;;;;;8.70;6.50;;;;;;;8.36;79.49;98669.36;107279;1257;61500;-37
2023/04/03 04:23:01;;;;;;;8.60;6.00;;;;;;;8.38;79.47;98674.65;107277;1258;73865;-37
2023/04/03 04:25:30;;;;;;;10.10;6.60;;;;;;;8.38;79.43;98672.02;107280;1257;68840;-37
2023/04/03 04:27:58;;;;;;;9.90;6.30;;;;;;;8.37;79.39;98670.23;107210;1257;72714;-37
2023/04/03 04:30:27;;;;;;;7.60;6.10;;;;;;;8.40;79.11;98669.89;107245;1257;62925;-36
2023/04/03 04:32:58;;;;;;;8.60;6.50;;;;;;;8.41;78.93;98665.98;107242;1257;60451;-37
2023/04/03 04:35:27;;;;;;;9.30;6.10;;;;;;;8.38;79.03;98666.23;107298;1256;74799;-38
2023/04/03 04:37:55;;;;;;;9.20;6.50;;;;;;;8.34;79.16;98666.16;107280;1257;67542;-38
2023/04/03 04:40:24;;;;;;;8.70;6.20;;;;;;;8.31;79.28;98668.81;107269;1257;73675;-38
2023/04/03 04:42:53;;;;;;;9.50;6.20;;;;;;;8.32;79.27;98664.51;107265;1257;62008;-38
2023/04/03 04:45:22;;;;;;;8.70;6.20;;;;;;;8.36;79.34;98670.59;107225;1257;61089;-37
2023/04/03 04:47:52;;;;;;;9.40;6.30;;;;;;;8.36;79.38;98670.58;107255;1257;75551;-38
2023/04/03 04:50:21;;;;;;;9.00;6.60;;;;;;;8.36;79.45;98671.13;107333;1257;67268;-37
2023/04/03 04:52:51;;;;;;;8.70;6.50;;;;;;;8.33;79.37;98671.55;107212;1257;73957;-37
2023/04/03 04:55:20;;;;;;;8.50;6.00;;;;;;;8.30;79.50;98672.66;107249;1257;61689;-38
2023/04/03 04:57:50;;;;;;;7.50;6.00;;;;;;;8.34;79.38;98671.88;107166;1260;61212;-38
2023/04/03 05:00:20;;;;;;;8.30;6.00;;;;;;;8.34;79.33;98672.57;107113;1257;74550;-38
2023/04/03 05:02:49;;;;;;;9.50;7.20;;;;;;;8.33;79.47;98673.10;107223;1256;69078;-38
2023/04/03 05:05:19;;;;;;;7.70;6.70;;;;;;;8.32;79.65;98672.92;107198;1257;72743;-37
2023/04/03 05:07:48;;;;;;;8.50;6.00;;;;;;;8.32;79.62;98681.27;107172;1257;61707;-38
2023/04/03 05:10:17;;;;;;;7.10;5.70;;;;;;;8.35;79.51;98681.92;107220;1257;61264;-38
2023/04/03 05:12:46;;;;;;;8.80;6.20;;;;;;;8.41;79.44;98682.55;107259;1257;74774;-38
2023/04/03 05:15:15;;;;;;;7.90;5.80;;;;;;;8.42;79.26;98687.36;107251;1257;68807;-38
2023/04/03 05:17:45;;;;;;;8.00;6.30;;;;;;;8.39;79.42;98684.98;107156;1257;73524;-37
2023/04/03 05:20:15;;;;;;;8.10;6.00;;;;;;;8.39;79.47;98685.85;107089;1257;62844;-37
2023/04/03 05:22:44;;;;;;;7.30;5.90;;;;;;;8.44;79.33;98683.92;107216;1257;60339;-37
2023/04/03 05:25:13;;;;;;;6.10;4.50;;;;;;;8.48;79.21;98686.16;107285;1259;72822;-38
2023/04/03 05:27:44;;;;;;;8.50;6.40;;;;;;;8.51;79.34;98690.20;107274;1257;68930;-37
2023/04/03 05:30:13;;;;;;;8.90;6.10;;;;;;;8.54;79.35;98688.11;107301;1257;73764;-37
2023/04/03 05:32:42;;;;;;;8.60;6.20;;;;;;;8.53;79.15;98692.56;107274;1257;60411;-37
2023/04/03 05:35:15;;;;;;;7.30;5.60;;;;;;;8.52;79.23;98694.85;107225;1260;61533;-37
2023/04/03 05:37:46;;;;;;;9.40;6.40;;;;;;;8.56;79.17;98695.15;107305;1257;74783;-37
2023/04/03 05:40:14;;;;;;;7.20;6.20;;;;;;;8.57;79.09;98700.19;107317;1256;69298;-37
2023/04/03 05:42:47;;;;;;;7.70;6.30;;;;;;;8.59;79.29;98704.00;107240;1257;73558;-37
2023/04/03 05:45:16;;;;;;;8.70;6.50;;;;;;;8.61;79.22;98707.83;107291;1257;61593;-37
2023/04/03 05:47:45;;;;;;;7.80;6.20;;;;;;;8.61;79.14;98704.13;107289;1257;61329;-37
2023/04/03 05:50:14;;;;;;;8.80;6.30;;;;;;;8.63;78.88;98702.99;107225;1257;74967;-37
2023/04/03 05:52:44;;;;;;;9.60;6.50;;;;;;;8.63;78.84;98706.07;107217;1257;68020;-37
2023/04/03 05:55:13;;;;;;;9.20;6.60;;;;;;;8.60;78.93;98705.49;107283;1257;73875;-37
2023/04/03 05:57:42;;;;;;;8.60;6.80;;;;;;;8.56;78.99;98713.30;107304;1257;60365;-42
2023/04/03 06:00:15;;;;;;;8.10;6.20;;;;;;;8.53;79.30;98714.78;107329;1257;60323;-37
2023/04/03 06:02:48;;;;;;;8.70;6.50;;;;;;;8.60;79.25;98715.67;107229;1257;74741;-37
2023/04/03 06:05:20;;;;;;;6.90;5.60;;;;;;;8.65;79.07;98721.09;107217;1257;68880;-37
2023/04/03 06:07:49;;;;;;;7.00;6.20;;;;;;;8.66;78.86;98721.48;107139;1257;73883;-37
2023/04/03 06:10:18;;;;;;;7.50;6.40;;;;;;;8.65;79.07;98722.63;107116;1257;61276;-37
2023/04/03 06:12:46;;;;;;;8.90;6.30;;;;;;;8.65;79.13;98725.11;107181;1257;61560;-37
2023/04/03 06:15:16;;;;;;;8.90;6.00;;;;;;;8.65;78.92;98725.73;107214;1257;74805;-37
2023/04/03 06:17:48;;;;;;;6.70;6.00;;;;;;;8.70;78.73;98725.64;107176;1261;69008;-37
2023/04/03 06:20:17;;;;;;;7.90;6.40;;;;;;;8.68;78.71;98726.60;107232;1257;73105;-37
2023/04/03 06:22:46;;;;;;;9.40;6.90;;;;;;;8.63;78.95;98725.44;107213;1257;61287;-37
2023/04/03 06:25:17;;;;;;;7.90;6.90;;;;;;;8.63;79.32;98729.01;107158;1257;60360;-37
2023/04/03 06:27:47;;;;;;;8.10;6.30;;;;;;;8.66;79.51;98726.59;107194;1257;73843;-37
2023/04/03 06:30:16;;;;;;;8.10;6.10;;;;;;;8.77;79.39;98729.08;107252;1257;69113;-37
2023/04/03 06:32:46;;;;;;;7.10;6.20;;;;;;;8.84;79.27;98729.17;107255;1257;71691;-37
2023/04/03 06:35:15;;;;;;;7.20;6.40;;;;;;;8.84;79.11;98730.65;107248;1257;60389;-37
2023/04/03 06:37:44;;;;;;;8.90;6.80;;;;;;;8.84;79.07;98733.98;107253;1257;61158;-37
2023/04/03 06:40:19;;;;;;;8.80;6.70;;;;;;;8.82;79.12;98732.94;107273;1257;75084;-37
2023/04/03 06:42:48;;;;;;;8.60;6.30;;;;;;;8.87;78.73;98736.56;107223;1257;69097;-37
2023/04/03 06:45:19;;;;;;;;;;;;;;;8.88;78.59;98736.27;107292;1257;71853;-37
2023/04/03 06:47:47;;;;;;;10.30;7.00;;;;;;;8.82;79.05;98739.81;107275;1256;61629;-37
2023/04/03 06:50:16;;;;;;;7.10;6.30;;;;;;;8.79;79.34;98738.52;107299;1261;61603;-37
2023/04/03 06:52:46;;;;;;;7.20;5.90;;;;;;;8.83;79.21;98745.23;107267;1257;73894;-37
2023/04/03 06:55:15;;;;;;;7.50;6.40;;;;;;;8.88;78.91;98747.86;107253;1257;69117;-37
2023/04/03 06:57:43;;;;;;;9.60;6.60;;;;;;;8.91;79.01;98750.92;107254;1257;72679;-37
2023/04/03 07:00:13;;;;;;;9.10;6.70;;;;;;;8.93;78.89;98752.96;106573;1257;1003670;-37
2023/04/03 07:02:53;;;;;;;8.80;7.00;;;;;;;8.95;79.14;98752.54;107253;1257;61547;-37
2023/04/03 07:05:22;;;;;;;8.20;6.70;;;;;;;8.97;79.14;98754.66;107271;1257;75079;-37
2023/04/03 07:07:51;;;;;;;9.60;6.80;;;;;;;9.05;78.74;98761.02;107278;1257;69137;-37
2023/04/03 07:10:19;;;;;;;9.60;6.70;;;;;;;9.11;78.65;98758.48;107368;1257;72244;-37
2023/04/03 07:12:49;;;;;;;9.10;7.00;;;;;;;9.18;78.80;98759.52;107260;1261;60482;-37
2023/04/03 07:15:17;;;;;;;7.10;6.10;;;;;;;9.21;78.31;98760.16;107155;1256;61539;-38
2023/04/03 07:17:46;;;;;;;10.30;7.10;;;;;;;9.19;78.10;98764.86;107197;1256;75021;-38
2023/04/03 07:20:15;;;;;;;8.30;6.40;;;;;;;9.13;78.11;98763.30;107211;1257;69181;-38
2023/04/03 07:22:43;;;;;;;8.80;6.60;;;;;;;9.14;78.08;98765.02;107267;1256;73866;-38
2023/04/03 07:25:12;;;;;;;9.00;7.00;;;;;;;9.14;78.23;98767.02;107199;1261;60886;-38
2023/04/03 07:27:41;;;;;;;9.40;7.10;;;;;;;9.15;78.47;98765.34;107246;1257;61741;-37
2023/04/03 07:30:10;;;;;;;8.30;6.60;;;;;;;9.13;78.43;98769.33;107264;1257;74801;-38
2023/04/03 07:32:40;;;;;;;9.10;7.00;;;;;;;9.10;78.66;98765.58;107264;1257;67911;-37
2023/04/03 07:35:09;;;;;;;6.40;4.40;;;;;;;9.15;78.36;98767.05;107271;1257;73256;-38
2023/04/03 07:37:37;;;;;;;9.00;6.90;;;;;;;9.17;78.39;98763.42;107231;1262;61939;-38
2023/04/03 07:40:08;;;;;;;9.30;7.20;;;;;;;9.21;78.46;98772.23;107228;1257;61160;-38
2023/04/03 07:42:40;;;;;;;10.10;8.00;;;;;;;9.22;78.51;98772.40;107283;1261;74984;-38
2023/04/03 07:45:09;;;;;;;12.00;7.30;;;;;;;9.23;78.62;98773.34;107277;1257;69144;-38
2023/04/03 07:47:39;;;;;;;8.70;6.40;;;;;;;9.28;78.35;98772.41;107248;1257;73536;-38
2023/04/03 07:50:08;;;;;;;10.00;7.50;;;;;;;9.33;77.85;98771.02;107307;1257;61309;-38
2023/04/03 07:52:37;;;;;;;9.10;7.40;;;;;;;9.32;78.27;98773.70;107280;1258;61514;-38
2023/04/03 07:55:06;;;;;;;9.80;7.60;;;;;;;9.32;78.18;98772.08;107271;1262;74069;-38
2023/04/03 07:57:35;;;;;;;6.00;4.80;;;;;;;9.32;77.98;98773.70;107296;1257;69147;-38
2023/04/03 08:00:05;;;;;;;8.10;6.60;;;;;;;9.36;77.75;98779.56;107220;1257;73978;-38
2023/04/03 08:02:40;;;;;;;9.50;6.90;;;;;;;9.40;77.69;98782.24;107228;1260;61303;-38
2023/04/03 08:05:09;;;;;;;8.00;6.90;;;;;;;9.42;77.75;98784.05;107270;1258;61545;-37
2023/04/03 08:07:38;;;;;;;9.80;7.60;;;;;;;9.46;77.72;98788.20;107298;1257;75075;-38
2023/04/03 08:10:07;;;;;;;9.50;6.80;;;;;;;9.50;77.87;98784.77;107241;1257;67981;-38
2023/04/03 08:12:36;;;;;;;10.70;6.50;;;;;;;9.57;77.94;98782.71;107221;1257;73887;-38
2023/04/03 08:15:06;;;;;;;8.90;6.90;;;;;;;9.69;77.98;98784.10;107238;1257;61403;-38
2023/04/03 08:17:36;;;;;;;9.20;6.60;;;;;;;9.76;77.68;98788.91;107227;1257;61271;-38
2023/04/03 08:20:07;;;;;;;8.60;6.80;;;;;;;9.81;77.51;98789.59;107170;1257;75048;-38
2023/04/03 08:22:35;;;;;;;;;;;;;;;9.82;77.16;98794.80;107227;1257;70248;-37
2023/04/03 08:25:04;;;;;;;8.00;6.90;;;;;;;9.78;77.14;98794.58;107237;1261;73826;-37
2023/04/03 08:27:33;;;;;;;8.00;6.10;;;;;;;9.79;76.92;98800.48;107281;1257;63290;-37
2023/04/03 08:30:03;;;;;;;9.80;6.60;;;;;;;9.84;76.61;98801.02;107338;1257;61562;-37
2023/04/03 08:32:34;;;;;;;7.80;6.20;;;;;;;9.87;76.68;98803.27;107342;1257;74686;-37
2023/04/03 08:35:04;;;;;;;8.80;6.80;;;;;;;9.91;76.93;98803.80;107314;1257;68075;-37
2023/04/03 08:37:36;;;;;;;8.50;6.10;;;;;;;10.00;76.95;98807.02;107328;1257;73649;-37
2023/04/03 08:40:05;;;;;;;6.90;5.80;;;;;;;10.08;76.14;98809.42;107241;1257;62873;-37
2023/04/03 08:42:59;;;;;;;9.10;6.30;;;;;;;10.17;76.12;98809.14;107251;1257;60351;-37
2023/04/03 08:45:56;;;;;;;9.00;6.20;;;;;;;10.23;75.45;98807.84;107274;1257;75042;-37
2023/04/03 08:48:30;;;;;;;11.00;7.40;;;;;;;10.17;74.81;98805.36;107295;1258;69105;-37
2023/04/03 08:51:00;;;;;;;10.10;7.10;;;;;;;10.09;75.12;98806.87;107262;1257;72240;-37
2023/04/03 08:53:33;;;;;;;7.20;5.90;;;;;;;10.07;75.02;98810.17;107311;1257;60678;-37
2023/04/03 08:56:04;;;;;;;7.50;6.10;;;;;;;10.08;74.75;98815.77;107273;1257;61278;-37
2023/04/03 08:59:00;;;;;;;9.20;6.60;;;;;;;10.12;74.58;98816.42;107240;1257;75014;-37
2023/04/03 09:01:47;;;;;;;9.70;6.70;;;;;;;10.12;74.70;98819.05;107278;1260;69103;-37
2023/04/03 09:04:16;;;;;;;8.50;7.00;;;;;;;10.07;75.00;98819.85;107265;1257;72092;-37
2023/04/03 09:06:52;;;;;;;8.50;6.60;;;;;;;10.04;75.24;98821.60;107204;1257;62056;-37
2023/04/03 09:09:40;;;;;;;6.70;6.00;;;;;;;10.12;75.18;98821.38;107549;1254;61433;-37
2023/04/03 09:12:15;;;;;;;6.80;5.70;;;;;;;10.14;75.14;98827.77;107382;1253;172307;-37
2023/04/03 09:15:44;;;;;;;7.90;6.00;;;;;;;10.17;75.49;98829.59;104108;1291;600224;-37
2023/04/03 09:18:26;;;;;;;8.10;6.40;;;;;;;10.18;74.83;98825.19;106567;1267;61569;-37
2023/04/03 09:21:16;;;;;;;7.70;5.60;;;;;;;10.17;74.98;98826.64;106606;1267;61532;-37
2023/04/03 09:23:53;;;;;;;8.70;5.60;;;;;;;10.23;74.56;98827.88;106611;1267;73181;-37
2023/04/03 09:26:35;;;;;;;9.20;6.20;;;;;;;10.25;74.45;98832.33;106586;1267;69249;-37
2023/04/03 09:29:06;;;;;;;7.90;5.90;;;;;;;10.26;74.29;98836.52;106588;1264;205729;-37
2023/04/03 09:31:39;;;;;;;8.60;6.20;;;;;;;10.22;73.80;98834.38;107260;1261;61295;-37
2023/04/03 09:34:23;;;;;;;8.10;6.10;;;;;;;10.17;74.22;98838.80;107237;1257;61565;-38
2023/04/03 09:36:56;;;;;;;7.40;6.10;;;;;;;10.16;74.48;98841.19;107266;1260;72272;-38
2023/04/03 09:39:28;;;;;;;8.40;5.50;;;;;;;10.24;74.13;98839.97;107279;1257;69124;-38
2023/04/03 09:42:18;;;;;;;7.60;5.80;;;;;;;10.29;73.95;98842.20;107238;1257;73816;-38
2023/04/03 09:45:00;;;;;;;7.50;6.40;;;;;;;10.31;74.19;98841.83;107247;1259;60601;-38
2023/04/03 09:47:34;;;;;;;8.20;6.50;;;;;;;10.34;74.00;98837.77;107246;1257;61221;-38
2023/04/03 09:50:19;;;;;;;7.10;6.00;;;;;;;10.38;73.46;98843.85;107253;1258;72468;-38
2023/04/03 09:52:51;;;;;;;7.10;5.80;;;;;;;10.48;73.90;98845.27;107229;1257;69654;-38
2023/04/03 09:55:28;;;;;;;7.20;5.80;;;;;;;10.60;73.34;98845.33;107256;1258;73681;-38
2023/04/03 09:58:01;;;;;;;7.20;5.90;;;;;;;10.67;73.21;98850.21;107275;1257;60229;-38
2023/04/03 10:00:35;;;;;;;7.90;6.20;;;;;;;10.75;72.75;98850.98;107220;1261;61453;-38
2023/04/03 10:03:39;;;;;;;7.40;5.90;;;;;;;10.77;72.02;98853.02;107182;1259;75161;-38
2023/04/03 10:06:22;;;;;;;8.50;6.60;;;;;;;10.73;71.90;98851.90;107066;1259;69169;-38
2023/04/03 10:09:06;;;;;;;10.40;5.90;;;;;;;10.68;71.51;98851.62;107059;1261;72783;-38
2023/04/03 10:11:37;;;;;;;7.70;5.80;;;;;;;10.71;71.46;98855.67;107060;1258;60117;-38
2023/04/03 10:14:15;;;;;;;8.40;6.30;;;;;;;10.72;71.40;98859.70;107014;1257;61495;-37
2023/04/03 10:17:08;;;;;;;9.90;6.50;;;;;;;10.70;71.42;98863.46;106995;1260;74250;-37
2023/04/03 10:19:58;;;;;;;8.50;6.20;;;;;;;10.65;71.00;98863.52;106926;1258;68963;-37
2023/04/03 10:22:45;;;;;;;8.60;6.50;;;;;;;10.57;71.40;98866.98;107080;1262;73549;-37
2023/04/03 10:25:41;;;;;;;10.00;6.10;;;;;;;10.48;71.62;98870.20;107072;1258;62213;-37
2023/04/03 10:28:16;;;;;;;8.30;5.80;;;;;;;10.50;72.35;98873.41;107100;1257;61238;-37
2023/04/03 10:30:58;;;;;;;7.00;5.60;;;;;;;10.48;72.23;98876.64;107082;1259;72714;-37
2023/04/03 10:33:33;;;;;;;8.80;6.10;;;;;;;10.47;72.43;98878.79;107110;1259;69135;-37
2023/04/03 10:36:18;;;;;;;8.00;5.60;;;;;;;10.48;72.73;98879.89;107077;1257;73892;-37
2023/04/03 10:39:04;;;;;;;5.10;3.60;;;;;;;10.46;72.62;98885.30;107065;1259;61640;-37
2023/04/03 10:41:46;;;;;;;1.40;1.30;;;;;;;10.31;71.89;98885.80;107142;1259;61807;-37
2023/04/03 10:44:36;;;;;;;2.00;1.00;;;;;;;10.23;70.82;98892.44;107141;1258;73046;-37
2023/04/03 10:47:18;;;;;;;1.20;0.80;;;;;;;10.00;71.01;98901.48;107123;1258;67937;-37
2023/04/03 10:50:02;;;;;;;2.50;1.10;;;;;;;9.76;71.35;98897.96;107032;1257;73664;-37
2023/04/03 10:52:53;;;;;;;1.70;1.00;;;;;;;9.55;71.91;98900.89;106952;1257;61713;-37
2023/04/03 10:55:47;;;;;;;1.50;1.10;;;;;;;9.31;72.49;98906.00;107084;1257;61508;-37
2023/04/03 10:58:24;;;;;;;0.60;0.60;;;;;;;9.19;73.22;98918.10;107072;1257;72689;-38
2023/04/03 11:00:54;;;;;;;0.70;0.70;;;;;;;9.13;73.10;98918.14;107051;1257;68756;-38
2023/04/03 11:03:31;;;;;;;1.20;0.90;;;;;;;8.97;72.89;98921.73;107042;1259;73545;-37
2023/04/03 11:06:02;;;;;;;1.30;0.80;;;;;;;8.78;73.25;98918.59;107034;1258;61714;-37
2023/04/03 11:08:44;;;;;;;1.80;1.20;;;;;;;8.66;73.84;98922.00;107093;1261;59814;-38
2023/04/03 11:11:21;;;;;;;0.90;0.80;;;;;;;8.57;74.39;98924.35;107070;1261;74700;-38
2023/04/03 11:14:21;;;;;;;1.30;0.90;;;;;;;8.55;74.52;98921.79;107040;1261;68853;-38
2023/04/03 11:17:22;;;;;;;2.40;1.50;;;;;;;8.52;74.96;98930.29;107056;1259;73876;-38
2023/04/03 11:20:06;;;;;;;1.20;1.10;;;;;;;8.42;75.01;98922.27;107016;1261;61619;-38
2023/04/03 11:22:40;;;;;;;2.60;1.10;;;;;;;8.39;75.08;98933.79;107075;1259;61613;-38
2023/04/03 11:25:11;;;;;;;4.20;1.30;;;;;;;8.30;75.13;98931.14;107113;1259;71809;-38
2023/04/03 11:27:55;;;;;;;1.30;1.20;;;;;;;8.26;75.10;98939.77;107118;1257;68324;-38
2023/04/03 11:30:31;;;;;;;1.20;1.10;;;;;;;8.25;75.41;98936.34;107050;1259;73916;-35
2023/04/03 11:33:09;;;;;;;1.10;0.90;;;;;;;8.21;75.45;98941.11;107068;1259;60467;-37
2023/04/03 11:35:43;;;;;;;1.20;1.10;;;;;;;8.14;75.41;98946.04;107047;1259;61232;-37
2023/04/03 11:38:17;;;;;;;1.50;1.10;;;;;;;8.03;75.40;98947.58;107135;1259;74263;-37
2023/04/03 11:40:46;;;;;;;1.70;1.10;;;;;;;7.95;75.66;98949.55;107064;1259;69057;-37
2023/04/03 11:43:25;;;;;;;1.00;0.90;;;;;;;7.94;75.81;98950.00;106943;1259;73904;-37
2023/04/03 11:46:00;;;;;;;1.50;1.00;;;;;;;7.89;76.07;98951.36;107054;1259;61797;-37
2023/04/03 11:48:31;;;;;;;1.40;1.00;;;;;;;7.87;76.44;98956.71;107119;1259;61653;-37
2023/04/03 11:51:22;;;;;;;1.00;0.90;;;;;;;7.85;76.39;98958.89;107078;1257;72881;-37
2023/04/03 11:53:51;;;;;;;1.60;1.20;;;;;;;7.80;76.42;98956.70;107059;1259;69131;-37
2023/04/03 11:56:27;;;;;;;1.60;1.30;;;;;;;7.83;76.56;98957.62;107051;1258;73785;-37